sensor_id;sensor_type;location;lat;lon;timestamp;P1;durP1;ratioP1;P2;durP2;ratioP2
81841;SDS011;71284;50.918;7.092;2024-01-25T00:01:20;26.00;;;5.03;;
81841;SDS011;71284;50.918;7.092;2024-01-25T00:03:47;29.30;;;5.07;;
81841;SDS011;71284;50.918;7.092;2024-01-25T00:06:13;45.35;;;5.95;;
81841;SDS011;71284;50.918;7.092;2024-01-25T00:08:40;49.00;;;6.75;;
81841;SDS011;71284;50.918;7.092;2024-01-25T00:11:06;39.77;;;5.03;;
81841;SDS011;71284;50.918;7.092;2024-01-25T00:13:33;40.17;;;6.05;;
81841;SDS011;71284;50.918;7.092;2024-01-25T00:16:00;29.90;;;5.20;;
81841;SDS011;71284;50.918;7.092;2024-01-25T00:18:27;29.77;;;5.45;;
81841;SDS011;71284;50.918;7.092;2024-01-25T00:20:53;49.13;;;6.12;;
81841;SDS011;71284;50.918;7.092;2024-01-25T00:23:20;41.85;;;6.87;;
81841;SDS011;71284;50.918;7.092;2024-01-25T00:25:47;37.75;;;5.97;;
81841;SDS011;71284;50.918;7.092;2024-01-25T00:28:13;33.72;;;5.62;;
81841;SDS011;71284;50.918;7.092;2024-01-25T00:30:40;35.00;;;4.07;;
81841;SDS011;71284;50.918;7.092;2024-01-25T00:33:06;30.05;;;5.20;;
81841;SDS011;71284;50.918;7.092;2024-01-25T00:35:33;32.72;;;5.10;;
81841;SDS011;71284;50.918;7.092;2024-01-25T00:38:00;41.40;;;5.93;;
81841;SDS011;71284;50.918;7.092;2024-01-25T00:40:27;41.25;;;6.85;;
81841;SDS011;71284;50.918;7.092;2024-01-25T00:42:54;26.27;;;6.93;;
81841;SDS011;71284;50.918;7.092;2024-01-25T00:45:22;24.70;;;5.00;;
81841;SDS011;71284;50.918;7.092;2024-01-25T00:47:48;34.47;;;6.93;;
81841;SDS011;71284;50.918;7.092;2024-01-25T00:50:16;44.35;;;4.90;;
81841;SDS011;71284;50.918;7.092;2024-01-25T00:52:43;32.40;;;6.55;;
81841;SDS011;71284;50.918;7.092;2024-01-25T00:55:10;36.83;;;6.20;;
81841;SDS011;71284;50.918;7.092;2024-01-25T00:57:37;42.43;;;5.67;;
81841;SDS011;71284;50.918;7.092;2024-01-25T01:00:04;54.77;;;7.47;;
81841;SDS011;71284;50.918;7.092;2024-01-25T01:02:35;46.40;;;6.80;;
81841;SDS011;71284;50.918;7.092;2024-01-25T01:04:58;26.87;;;5.50;;
81841;SDS011;71284;50.918;7.092;2024-01-25T01:07:25;57.00;;;7.45;;
81841;SDS011;71284;50.918;7.092;2024-01-25T01:09:52;43.00;;;5.70;;
81841;SDS011;71284;50.918;7.092;2024-01-25T01:12:19;29.58;;;4.87;;
81841;SDS011;71284;50.918;7.092;2024-01-25T01:14:46;23.87;;;4.95;;
81841;SDS011;71284;50.918;7.092;2024-01-25T01:17:12;37.27;;;7.93;;
81841;SDS011;71284;50.918;7.092;2024-01-25T01:19:39;39.28;;;6.35;;
81841;SDS011;71284;50.918;7.092;2024-01-25T01:22:05;31.35;;;5.37;;
81841;SDS011;71284;50.918;7.092;2024-01-25T01:24:32;37.05;;;6.05;;
81841;SDS011;71284;50.918;7.092;2024-01-25T01:26:59;30.83;;;5.70;;
81841;SDS011;71284;50.918;7.092;2024-01-25T01:29:25;40.75;;;7.37;;
81841;SDS011;71284;50.918;7.092;2024-01-25T01:31:52;30.37;;;5.05;;
81841;SDS011;71284;50.918;7.092;2024-01-25T01:34:18;61.60;;;7.80;;
81841;SDS011;71284;50.918;7.092;2024-01-25T01:36:45;32.30;;;5.00;;
81841;SDS011;71284;50.918;7.092;2024-01-25T01:39:12;43.90;;;6.15;;
81841;SDS011;71284;50.918;7.092;2024-01-25T01:41:38;28.80;;;5.95;;
81841;SDS011;71284;50.918;7.092;2024-01-25T01:44:05;38.60;;;6.07;;
81841;SDS011;71284;50.918;7.092;2024-01-25T01:46:32;26.37;;;6.80;;
81841;SDS011;71284;50.918;7.092;2024-01-25T01:49:01;29.27;;;5.80;;
81841;SDS011;71284;50.918;7.092;2024-01-25T01:51:28;48.25;;;6.05;;
81841;SDS011;71284;50.918;7.092;2024-01-25T01:53:54;32.75;;;6.30;;
81841;SDS011;71284;50.918;7.092;2024-01-25T01:56:20;37.22;;;5.87;;
81841;SDS011;71284;50.918;7.092;2024-01-25T01:58:47;38.28;;;5.70;;
81841;SDS011;71284;50.918;7.092;2024-01-25T02:01:14;30.52;;;4.28;;
81841;SDS011;71284;50.918;7.092;2024-01-25T02:03:40;37.15;;;4.82;;
81841;SDS011;71284;50.918;7.092;2024-01-25T02:06:07;36.93;;;5.60;;
81841;SDS011;71284;50.918;7.092;2024-01-25T02:08:33;34.42;;;6.45;;
81841;SDS011;71284;50.918;7.092;2024-01-25T02:11:00;23.87;;;4.82;;
81841;SDS011;71284;50.918;7.092;2024-01-25T02:13:27;39.30;;;4.82;;
81841;SDS011;71284;50.918;7.092;2024-01-25T02:15:53;37.55;;;4.75;;
81841;SDS011;71284;50.918;7.092;2024-01-25T02:18:20;27.30;;;5.00;;
81841;SDS011;71284;50.918;7.092;2024-01-25T02:20:46;28.15;;;5.60;;
81841;SDS011;71284;50.918;7.092;2024-01-25T02:23:13;34.33;;;6.50;;
81841;SDS011;71284;50.918;7.092;2024-01-25T02:25:40;37.30;;;5.60;;
81841;SDS011;71284;50.918;7.092;2024-01-25T02:28:06;32.80;;;6.05;;
81841;SDS011;71284;50.918;7.092;2024-01-25T02:30:33;41.53;;;6.32;;
81841;SDS011;71284;50.918;7.092;2024-01-25T02:32:59;31.98;;;5.35;;
81841;SDS011;71284;50.918;7.092;2024-01-25T02:35:26;45.58;;;6.90;;
81841;SDS011;71284;50.918;7.092;2024-01-25T02:37:53;45.83;;;6.82;;
81841;SDS011;71284;50.918;7.092;2024-01-25T02:40:19;29.77;;;6.20;;
81841;SDS011;71284;50.918;7.092;2024-01-25T02:42:46;46.65;;;8.07;;
81841;SDS011;71284;50.918;7.092;2024-01-25T02:45:12;41.67;;;7.50;;
81841;SDS011;71284;50.918;7.092;2024-01-25T02:47:39;41.85;;;6.60;;
81841;SDS011;71284;50.918;7.092;2024-01-25T02:50:06;39.42;;;6.07;;
81841;SDS011;71284;50.918;7.092;2024-01-25T02:52:33;26.48;;;6.12;;
81841;SDS011;71284;50.918;7.092;2024-01-25T02:54:59;33.97;;;5.93;;
81841;SDS011;71284;50.918;7.092;2024-01-25T02:57:26;35.45;;;7.57;;
81841;SDS011;71284;50.918;7.092;2024-01-25T02:59:53;41.22;;;6.20;;
81841;SDS011;71284;50.918;7.092;2024-01-25T03:02:19;40.50;;;6.45;;
81841;SDS011;71284;50.918;7.092;2024-01-25T03:04:46;35.05;;;5.97;;
81841;SDS011;71284;50.918;7.092;2024-01-25T03:07:12;36.35;;;4.85;;
81841;SDS011;71284;50.918;7.092;2024-01-25T03:09:39;53.40;;;6.70;;
81841;SDS011;71284;50.918;7.092;2024-01-25T03:12:06;48.00;;;6.50;;
81841;SDS011;71284;50.918;7.092;2024-01-25T03:14:32;36.58;;;6.40;;
81841;SDS011;71284;50.918;7.092;2024-01-25T03:16:59;40.78;;;5.82;;
81841;SDS011;71284;50.918;7.092;2024-01-25T03:19:26;25.77;;;5.00;;
81841;SDS011;71284;50.918;7.092;2024-01-25T03:21:52;24.48;;;5.35;;
81841;SDS011;71284;50.918;7.092;2024-01-25T03:24:19;19.15;;;4.95;;
81841;SDS011;71284;50.918;7.092;2024-01-25T03:26:45;21.90;;;4.87;;
81841;SDS011;71284;50.918;7.092;2024-01-25T03:29:12;30.05;;;6.18;;
81841;SDS011;71284;50.918;7.092;2024-01-25T03:31:39;45.70;;;6.80;;
81841;SDS011;71284;50.918;7.092;2024-01-25T03:34:06;45.40;;;6.30;;
81841;SDS011;71284;50.918;7.092;2024-01-25T03:36:32;22.50;;;5.62;;
81841;SDS011;71284;50.918;7.092;2024-01-25T03:38:59;32.72;;;5.37;;
81841;SDS011;71284;50.918;7.092;2024-01-25T03:41:25;38.20;;;6.57;;
81841;SDS011;71284;50.918;7.092;2024-01-25T03:43:52;56.78;;;7.30;;
81841;SDS011;71284;50.918;7.092;2024-01-25T03:46:19;40.35;;;6.87;;
81841;SDS011;71284;50.918;7.092;2024-01-25T03:48:45;38.63;;;6.90;;
81841;SDS011;71284;50.918;7.092;2024-01-25T03:51:12;26.35;;;5.68;;
81841;SDS011;71284;50.918;7.092;2024-01-25T03:53:38;38.67;;;6.07;;
81841;SDS011;71284;50.918;7.092;2024-01-25T03:56:10;24.33;;;6.12;;
81841;SDS011;71284;50.918;7.092;2024-01-25T03:58:32;26.75;;;5.40;;
81841;SDS011;71284;50.918;7.092;2024-01-25T04:00:59;39.80;;;7.03;;
81841;SDS011;71284;50.918;7.092;2024-01-25T04:03:25;50.63;;;6.90;;
81841;SDS011;71284;50.918;7.092;2024-01-25T04:05:52;37.20;;;7.20;;
81841;SDS011;71284;50.918;7.092;2024-01-25T04:08:18;43.17;;;6.72;;
81841;SDS011;71284;50.918;7.092;2024-01-25T04:10:45;25.35;;;5.70;;
81841;SDS011;71284;50.918;7.092;2024-01-25T04:13:12;39.65;;;6.93;;
81841;SDS011;71284;50.918;7.092;2024-01-25T04:15:38;27.20;;;6.07;;
81841;SDS011;71284;50.918;7.092;2024-01-25T04:18:05;26.80;;;5.93;;
81841;SDS011;71284;50.918;7.092;2024-01-25T04:20:32;35.63;;;5.87;;
81841;SDS011;71284;50.918;7.092;2024-01-25T04:22:58;53.20;;;7.22;;
81841;SDS011;71284;50.918;7.092;2024-01-25T04:25:25;40.58;;;7.15;;
81841;SDS011;71284;50.918;7.092;2024-01-25T04:27:51;34.65;;;7.15;;
81841;SDS011;71284;50.918;7.092;2024-01-25T04:30:18;32.42;;;4.78;;
81841;SDS011;71284;50.918;7.092;2024-01-25T04:32:44;38.65;;;6.40;;
81841;SDS011;71284;50.918;7.092;2024-01-25T04:35:11;36.78;;;5.75;;
81841;SDS011;71284;50.918;7.092;2024-01-25T04:37:38;35.60;;;5.87;;
81841;SDS011;71284;50.918;7.092;2024-01-25T04:40:04;28.62;;;7.15;;
81841;SDS011;71284;50.918;7.092;2024-01-25T04:42:32;28.50;;;5.85;;
81841;SDS011;71284;50.918;7.092;2024-01-25T04:44:58;31.83;;;6.75;;
81841;SDS011;71284;50.918;7.092;2024-01-25T04:47:25;35.33;;;5.05;;
81841;SDS011;71284;50.918;7.092;2024-01-25T04:49:51;37.42;;;7.68;;
81841;SDS011;71284;50.918;7.092;2024-01-25T04:52:18;28.48;;;6.30;;
81841;SDS011;71284;50.918;7.092;2024-01-25T04:54:45;41.28;;;6.07;;
81841;SDS011;71284;50.918;7.092;2024-01-25T04:57:11;19.25;;;3.85;;
81841;SDS011;71284;50.918;7.092;2024-01-25T04:59:38;23.73;;;5.60;;
81841;SDS011;71284;50.918;7.092;2024-01-25T05:02:04;32.97;;;4.25;;
81841;SDS011;71284;50.918;7.092;2024-01-25T05:04:31;30.85;;;5.57;;
81841;SDS011;71284;50.918;7.092;2024-01-25T05:06:58;34.97;;;7.07;;
81841;SDS011;71284;50.918;7.092;2024-01-25T05:09:24;30.83;;;7.00;;
81841;SDS011;71284;50.918;7.092;2024-01-25T05:11:51;39.58;;;5.68;;
81841;SDS011;71284;50.918;7.092;2024-01-25T05:14:17;16.80;;;3.80;;
81841;SDS011;71284;50.918;7.092;2024-01-25T05:16:44;25.10;;;5.60;;
81841;SDS011;71284;50.918;7.092;2024-01-25T05:19:11;28.20;;;8.07;;
81841;SDS011;71284;50.918;7.092;2024-01-25T05:21:37;37.38;;;6.78;;
81841;SDS011;71284;50.918;7.092;2024-01-25T05:24:04;22.87;;;5.32;;
81841;SDS011;71284;50.918;7.092;2024-01-25T05:26:30;31.95;;;6.68;;
81841;SDS011;71284;50.918;7.092;2024-01-25T05:28:57;27.85;;;6.28;;
81841;SDS011;71284;50.918;7.092;2024-01-25T05:31:24;25.12;;;4.82;;
81841;SDS011;71284;50.918;7.092;2024-01-25T05:33:50;17.77;;;4.57;;
81841;SDS011;71284;50.918;7.092;2024-01-25T05:36:17;19.10;;;4.22;;
81841;SDS011;71284;50.918;7.092;2024-01-25T05:38:43;28.55;;;5.93;;
81841;SDS011;71284;50.918;7.092;2024-01-25T05:41:10;29.45;;;3.70;;
81841;SDS011;71284;50.918;7.092;2024-01-25T05:43:37;44.88;;;4.53;;
81841;SDS011;71284;50.918;7.092;2024-01-25T05:46:03;20.33;;;5.72;;
81841;SDS011;71284;50.918;7.092;2024-01-25T05:48:30;37.92;;;5.80;;
81841;SDS011;71284;50.918;7.092;2024-01-25T05:50:57;24.87;;;4.95;;
81841;SDS011;71284;50.918;7.092;2024-01-25T05:53:24;49.47;;;5.07;;
81841;SDS011;71284;50.918;7.092;2024-01-25T05:55:51;20.17;;;4.25;;
81841;SDS011;71284;50.918;7.092;2024-01-25T05:58:17;14.60;;;5.55;;
81841;SDS011;71284;50.918;7.092;2024-01-25T06:00:44;32.83;;;5.85;;
81841;SDS011;71284;50.918;7.092;2024-01-25T06:03:10;23.30;;;5.15;;
81841;SDS011;71284;50.918;7.092;2024-01-25T06:05:37;24.10;;;5.35;;
81841;SDS011;71284;50.918;7.092;2024-01-25T06:08:04;20.48;;;4.45;;
81841;SDS011;71284;50.918;7.092;2024-01-25T06:10:30;14.85;;;4.43;;
81841;SDS011;71284;50.918;7.092;2024-01-25T06:12:57;35.30;;;5.60;;
81841;SDS011;71284;50.918;7.092;2024-01-25T06:15:24;33.60;;;6.05;;
81841;SDS011;71284;50.918;7.092;2024-01-25T06:17:50;27.30;;;5.32;;
81841;SDS011;71284;50.918;7.092;2024-01-25T06:20:17;21.30;;;5.43;;
81841;SDS011;71284;50.918;7.092;2024-01-25T06:22:43;24.60;;;5.65;;
81841;SDS011;71284;50.918;7.092;2024-01-25T06:25:10;18.75;;;4.70;;
81841;SDS011;71284;50.918;7.092;2024-01-25T06:27:37;30.08;;;5.10;;
81841;SDS011;71284;50.918;7.092;2024-01-25T06:30:04;20.17;;;4.25;;
81841;SDS011;71284;50.918;7.092;2024-01-25T06:32:31;30.00;;;5.03;;
81841;SDS011;71284;50.918;7.092;2024-01-25T06:34:57;24.65;;;4.43;;
81841;SDS011;71284;50.918;7.092;2024-01-25T06:37:24;22.95;;;5.12;;
81841;SDS011;71284;50.918;7.092;2024-01-25T06:39:50;21.17;;;5.57;;
81841;SDS011;71284;50.918;7.092;2024-01-25T06:42:17;21.87;;;5.25;;
81841;SDS011;71284;50.918;7.092;2024-01-25T06:44:44;20.70;;;4.93;;
81841;SDS011;71284;50.918;7.092;2024-01-25T06:47:10;40.47;;;6.00;;
81841;SDS011;71284;50.918;7.092;2024-01-25T06:49:37;35.83;;;6.45;;
81841;SDS011;71284;50.918;7.092;2024-01-25T06:52:04;28.83;;;6.15;;
81841;SDS011;71284;50.918;7.092;2024-01-25T06:54:30;33.47;;;6.00;;
81841;SDS011;71284;50.918;7.092;2024-01-25T06:56:57;40.10;;;5.80;;
81841;SDS011;71284;50.918;7.092;2024-01-25T06:59:24;22.55;;;4.85;;
81841;SDS011;71284;50.918;7.092;2024-01-25T07:01:50;28.30;;;5.57;;
81841;SDS011;71284;50.918;7.092;2024-01-25T07:04:17;44.95;;;6.80;;
81841;SDS011;71284;50.918;7.092;2024-01-25T07:06:43;19.12;;;4.75;;
81841;SDS011;71284;50.918;7.092;2024-01-25T07:09:10;14.05;;;4.43;;
81841;SDS011;71284;50.918;7.092;2024-01-25T07:11:37;28.55;;;4.45;;
81841;SDS011;71284;50.918;7.092;2024-01-25T07:14:03;27.20;;;6.20;;
81841;SDS011;71284;50.918;7.092;2024-01-25T07:16:30;26.35;;;5.10;;
81841;SDS011;71284;50.918;7.092;2024-01-25T07:18:56;31.98;;;4.37;;
81841;SDS011;71284;50.918;7.092;2024-01-25T07:21:23;32.85;;;5.82;;
81841;SDS011;71284;50.918;7.092;2024-01-25T07:23:50;30.37;;;5.95;;
81841;SDS011;71284;50.918;7.092;2024-01-25T07:26:17;29.02;;;7.03;;
81841;SDS011;71284;50.918;7.092;2024-01-25T07:28:43;32.38;;;5.93;;
81841;SDS011;71284;50.918;7.092;2024-01-25T07:31:09;25.02;;;5.20;;
81841;SDS011;71284;50.918;7.092;2024-01-25T07:33:36;28.92;;;5.78;;
81841;SDS011;71284;50.918;7.092;2024-01-25T07:36:03;31.55;;;5.87;;
81841;SDS011;71284;50.918;7.092;2024-01-25T07:38:30;15.68;;;4.07;;
81841;SDS011;71284;50.918;7.092;2024-01-25T07:40:56;17.20;;;4.43;;
81841;SDS011;71284;50.918;7.092;2024-01-25T07:43:23;33.50;;;6.00;;
81841;SDS011;71284;50.918;7.092;2024-01-25T07:45:49;46.08;;;5.60;;
81841;SDS011;71284;50.918;7.092;2024-01-25T07:48:16;20.92;;;3.53;;
81841;SDS011;71284;50.918;7.092;2024-01-25T07:50:43;21.00;;;4.75;;
81841;SDS011;71284;50.918;7.092;2024-01-25T07:53:09;40.17;;;8.18;;
81841;SDS011;71284;50.918;7.092;2024-01-25T07:55:36;19.45;;;5.30;;
81841;SDS011;71284;50.918;7.092;2024-01-25T07:58:02;44.10;;;4.82;;
81841;SDS011;71284;50.918;7.092;2024-01-25T08:00:29;13.52;;;4.70;;
81841;SDS011;71284;50.918;7.092;2024-01-25T08:02:56;21.20;;;4.85;;
81841;SDS011;71284;50.918;7.092;2024-01-25T08:05:23;11.68;;;4.00;;
81841;SDS011;71284;50.918;7.092;2024-01-25T08:07:50;21.33;;;4.93;;
81841;SDS011;71284;50.918;7.092;2024-01-25T08:10:16;32.40;;;5.37;;
81841;SDS011;71284;50.918;7.092;2024-01-25T08:12:43;25.25;;;6.37;;
81841;SDS011;71284;50.918;7.092;2024-01-25T08:15:10;14.48;;;3.97;;
81841;SDS011;71284;50.918;7.092;2024-01-25T08:17:37;18.42;;;4.55;;
81841;SDS011;71284;50.918;7.092;2024-01-25T08:20:03;15.65;;;5.50;;
81841;SDS011;71284;50.918;7.092;2024-01-25T08:22:30;38.03;;;6.37;;
81841;SDS011;71284;50.918;7.092;2024-01-25T08:24:57;24.12;;;4.90;;
81841;SDS011;71284;50.918;7.092;2024-01-25T08:27:24;26.62;;;5.20;;
81841;SDS011;71284;50.918;7.092;2024-01-25T08:29:50;27.65;;;5.95;;
81841;SDS011;71284;50.918;7.092;2024-01-25T08:32:16;30.27;;;6.90;;
81841;SDS011;71284;50.918;7.092;2024-01-25T08:34:43;24.00;;;5.80;;
81841;SDS011;71284;50.918;7.092;2024-01-25T08:37:09;22.95;;;4.78;;
81841;SDS011;71284;50.918;7.092;2024-01-25T08:39:36;34.35;;;5.40;;
81841;SDS011;71284;50.918;7.092;2024-01-25T08:42:03;29.12;;;6.47;;
81841;SDS011;71284;50.918;7.092;2024-01-25T08:44:30;25.45;;;5.20;;
81841;SDS011;71284;50.918;7.092;2024-01-25T08:46:56;15.93;;;4.55;;
81841;SDS011;71284;50.918;7.092;2024-01-25T08:49:23;21.48;;;5.62;;
81841;SDS011;71284;50.918;7.092;2024-01-25T08:51:49;11.60;;;4.93;;
81841;SDS011;71284;50.918;7.092;2024-01-25T08:54:16;39.45;;;6.55;;
81841;SDS011;71284;50.918;7.092;2024-01-25T08:56:43;23.75;;;5.80;;
81841;SDS011;71284;50.918;7.092;2024-01-25T08:59:09;25.30;;;6.20;;
81841;SDS011;71284;50.918;7.092;2024-01-25T09:01:36;24.12;;;5.50;;
81841;SDS011;71284;50.918;7.092;2024-01-25T09:04:02;23.35;;;5.97;;
81841;SDS011;71284;50.918;7.092;2024-01-25T09:06:29;23.20;;;6.10;;
81841;SDS011;71284;50.918;7.092;2024-01-25T09:08:56;20.95;;;5.87;;
81841;SDS011;71284;50.918;7.092;2024-01-25T09:11:22;22.77;;;5.62;;
81841;SDS011;71284;50.918;7.092;2024-01-25T09:13:49;21.75;;;6.00;;
81841;SDS011;71284;50.918;7.092;2024-01-25T09:16:15;26.05;;;4.97;;
81841;SDS011;71284;50.918;7.092;2024-01-25T09:18:42;28.80;;;6.60;;
81841;SDS011;71284;50.918;7.092;2024-01-25T09:21:09;32.03;;;5.25;;
81841;SDS011;71284;50.918;7.092;2024-01-25T09:23:35;27.27;;;6.20;;
81841;SDS011;71284;50.918;7.092;2024-01-25T09:26:02;35.33;;;5.78;;
81841;SDS011;71284;50.918;7.092;2024-01-25T09:28:28;33.55;;;8.45;;
81841;SDS011;71284;50.918;7.092;2024-01-25T09:30:55;27.37;;;6.55;;
81841;SDS011;71284;50.918;7.092;2024-01-25T09:33:22;28.60;;;6.97;;
81841;SDS011;71284;50.918;7.092;2024-01-25T09:35:48;31.17;;;6.50;;
81841;SDS011;71284;50.918;7.092;2024-01-25T09:38:15;28.50;;;6.00;;
81841;SDS011;71284;50.918;7.092;2024-01-25T09:40:41;34.13;;;7.20;;
81841;SDS011;71284;50.918;7.092;2024-01-25T09:43:08;29.42;;;6.75;;
81841;SDS011;71284;50.918;7.092;2024-01-25T09:45:35;36.15;;;8.45;;
81841;SDS011;71284;50.918;7.092;2024-01-25T09:48:01;29.23;;;8.00;;
81841;SDS011;71284;50.918;7.092;2024-01-25T09:50:28;28.62;;;7.97;;
81841;SDS011;71284;50.918;7.092;2024-01-25T09:52:54;33.90;;;6.85;;
81841;SDS011;71284;50.918;7.092;2024-01-25T09:55:22;58.35;;;10.88;;
81841;SDS011;71284;50.918;7.092;2024-01-25T09:57:48;40.85;;;7.40;;
81841;SDS011;71284;50.918;7.092;2024-01-25T10:00:14;44.33;;;7.85;;
81841;SDS011;71284;50.918;7.092;2024-01-25T10:02:42;38.88;;;8.90;;
81841;SDS011;71284;50.918;7.092;2024-01-25T10:05:08;44.65;;;9.98;;
81841;SDS011;71284;50.918;7.092;2024-01-25T10:07:37;36.58;;;8.25;;
81841;SDS011;71284;50.918;7.092;2024-01-25T10:10:03;29.50;;;7.40;;
81841;SDS011;71284;50.918;7.092;2024-01-25T10:12:31;45.83;;;9.33;;
81841;SDS011;71284;50.918;7.092;2024-01-25T10:14:57;27.03;;;6.73;;
81841;SDS011;71284;50.918;7.092;2024-01-25T10:17:23;51.53;;;9.65;;
81841;SDS011;71284;50.918;7.092;2024-01-25T10:19:50;29.00;;;7.40;;
81841;SDS011;71284;50.918;7.092;2024-01-25T10:22:17;31.20;;;9.27;;
81841;SDS011;71284;50.918;7.092;2024-01-25T10:24:43;33.53;;;8.47;;
81841;SDS011;71284;50.918;7.092;2024-01-25T10:27:10;28.57;;;8.43;;
81841;SDS011;71284;50.918;7.092;2024-01-25T10:29:37;39.53;;;10.10;;
81841;SDS011;71284;50.918;7.092;2024-01-25T10:32:03;42.43;;;10.27;;
81841;SDS011;71284;50.918;7.092;2024-01-25T10:34:31;43.03;;;8.97;;
81841;SDS011;71284;50.918;7.092;2024-01-25T10:36:57;25.70;;;7.40;;
81841;SDS011;71284;50.918;7.092;2024-01-25T10:39:24;24.63;;;7.73;;
81841;SDS011;71284;50.918;7.092;2024-01-25T10:41:52;53.17;;;10.10;;
81841;SDS011;71284;50.918;7.092;2024-01-25T10:44:18;50.07;;;7.60;;
81841;SDS011;71284;50.918;7.092;2024-01-25T10:46:47;34.27;;;9.23;;
81841;SDS011;71284;50.918;7.092;2024-01-25T10:49:14;44.30;;;10.17;;
81841;SDS011;71284;50.918;7.092;2024-01-25T10:51:41;31.80;;;10.23;;
81841;SDS011;71284;50.918;7.092;2024-01-25T10:54:08;37.57;;;9.93;;
81841;SDS011;71284;50.918;7.092;2024-01-25T10:56:35;29.10;;;9.40;;
81841;SDS011;71284;50.918;7.092;2024-01-25T10:59:01;34.63;;;9.00;;
81841;SDS011;71284;50.918;7.092;2024-01-25T11:01:28;56.37;;;10.03;;
81841;SDS011;71284;50.918;7.092;2024-01-25T11:03:55;32.40;;;8.37;;
81841;SDS011;71284;50.918;7.092;2024-01-25T11:06:21;47.57;;;9.30;;
81841;SDS011;71284;50.918;7.092;2024-01-25T11:08:48;45.63;;;8.10;;
81841;SDS011;71284;50.918;7.092;2024-01-25T11:11:15;31.20;;;9.40;;
81841;SDS011;71284;50.918;7.092;2024-01-25T11:13:42;35.80;;;9.33;;
81841;SDS011;71284;50.918;7.092;2024-01-25T11:16:12;40.23;;;10.43;;
81841;SDS011;71284;50.918;7.092;2024-01-25T11:21:22;41.57;;;9.80;;
81841;SDS011;71284;50.918;7.092;2024-01-25T11:23:49;41.50;;;9.37;;
81841;SDS011;71284;50.918;7.092;2024-01-25T11:26:15;27.67;;;8.00;;
81841;SDS011;71284;50.918;7.092;2024-01-25T11:28:43;36.40;;;9.17;;
81841;SDS011;71284;50.918;7.092;2024-01-25T11:31:08;35.53;;;8.33;;
81841;SDS011;71284;50.918;7.092;2024-01-25T11:33:35;30.80;;;9.03;;
81841;SDS011;71284;50.918;7.092;2024-01-25T11:36:02;34.33;;;9.57;;
81841;SDS011;71284;50.918;7.092;2024-01-25T11:38:28;41.93;;;8.80;;
81841;SDS011;71284;50.918;7.092;2024-01-25T11:40:56;32.17;;;8.10;;
81841;SDS011;71284;50.918;7.092;2024-01-25T11:43:21;39.20;;;9.60;;
81841;SDS011;71284;50.918;7.092;2024-01-25T11:45:48;34.47;;;8.03;;
81841;SDS011;71284;50.918;7.092;2024-01-25T11:48:15;30.50;;;7.43;;
81841;SDS011;71284;50.918;7.092;2024-01-25T11:50:41;36.37;;;8.57;;
81841;SDS011;71284;50.918;7.092;2024-01-25T11:53:08;49.37;;;8.23;;
81841;SDS011;71284;50.918;7.092;2024-01-25T11:55:34;21.63;;;6.87;;
81841;SDS011;71284;50.918;7.092;2024-01-25T11:58:01;30.27;;;8.50;;
81841;SDS011;71284;50.918;7.092;2024-01-25T12:00:28;32.60;;;8.20;;
81841;SDS011;71284;50.918;7.092;2024-01-25T12:02:54;27.27;;;6.70;;
81841;SDS011;71284;50.918;7.092;2024-01-25T12:05:21;37.70;;;7.70;;
81841;SDS011;71284;50.918;7.092;2024-01-25T12:07:47;36.67;;;7.83;;
81841;SDS011;71284;50.918;7.092;2024-01-25T12:10:15;24.20;;;5.67;;
81841;SDS011;71284;50.918;7.092;2024-01-25T12:12:44;18.83;;;5.33;;
81841;SDS011;71284;50.918;7.092;2024-01-25T12:15:11;35.60;;;7.67;;
81841;SDS011;71284;50.918;7.092;2024-01-25T12:17:37;21.40;;;5.60;;
81841;SDS011;71284;50.918;7.092;2024-01-25T12:20:05;26.60;;;6.80;;
81841;SDS011;71284;50.918;7.092;2024-01-25T12:22:33;30.13;;;6.60;;
81841;SDS011;71284;50.918;7.092;2024-01-25T12:25:00;22.10;;;5.20;;
81841;SDS011;71284;50.918;7.092;2024-01-25T12:27:26;21.27;;;5.50;;
81841;SDS011;71284;50.918;7.092;2024-01-25T12:29:53;24.17;;;5.37;;
81841;SDS011;71284;50.918;7.092;2024-01-25T12:32:20;33.63;;;8.03;;
81841;SDS011;71284;50.918;7.092;2024-01-25T12:34:53;26.60;;;4.93;;
81841;SDS011;71284;50.918;7.092;2024-01-25T12:37:20;32.70;;;6.77;;
81841;SDS011;71284;50.918;7.092;2024-01-25T12:39:46;32.93;;;5.43;;
81841;SDS011;71284;50.918;7.092;2024-01-25T12:42:13;28.23;;;5.33;;
81841;SDS011;71284;50.918;7.092;2024-01-25T12:44:39;24.77;;;6.50;;
81841;SDS011;71284;50.918;7.092;2024-01-25T12:47:06;39.60;;;6.90;;
81841;SDS011;71284;50.918;7.092;2024-01-25T12:49:33;37.87;;;4.67;;
81841;SDS011;71284;50.918;7.092;2024-01-25T12:51:59;14.30;;;3.87;;
81841;SDS011;71284;50.918;7.092;2024-01-25T12:54:26;42.33;;;4.83;;
81841;SDS011;71284;50.918;7.092;2024-01-25T12:56:52;17.57;;;4.00;;
81841;SDS011;71284;50.918;7.092;2024-01-25T12:59:19;24.87;;;4.90;;
81841;SDS011;71284;50.918;7.092;2024-01-25T13:01:46;31.97;;;6.30;;
81841;SDS011;71284;50.918;7.092;2024-01-25T13:04:12;35.40;;;5.30;;
81841;SDS011;71284;50.918;7.092;2024-01-25T13:06:39;21.67;;;5.30;;
81841;SDS011;71284;50.918;7.092;2024-01-25T13:09:05;22.87;;;4.00;;
81841;SDS011;71284;50.918;7.092;2024-01-25T13:11:32;20.37;;;4.10;;
81841;SDS011;71284;50.918;7.092;2024-01-25T13:13:59;21.97;;;4.13;;
81841;SDS011;71284;50.918;7.092;2024-01-25T13:16:25;23.50;;;4.80;;
81841;SDS011;71284;50.918;7.092;2024-01-25T13:18:52;25.40;;;5.10;;
81841;SDS011;71284;50.918;7.092;2024-01-25T13:21:18;19.47;;;5.23;;
81841;SDS011;71284;50.918;7.092;2024-01-25T13:23:45;19.13;;;4.40;;
81841;SDS011;71284;50.918;7.092;2024-01-25T13:26:12;15.83;;;4.50;;
81841;SDS011;71284;50.918;7.092;2024-01-25T13:28:39;27.63;;;4.00;;
81841;SDS011;71284;50.918;7.092;2024-01-25T13:31:05;11.63;;;3.63;;
81841;SDS011;71284;50.918;7.092;2024-01-25T13:33:32;17.40;;;4.30;;
81841;SDS011;71284;50.918;7.092;2024-01-25T13:35:58;31.10;;;4.07;;
81841;SDS011;71284;50.918;7.092;2024-01-25T13:38:25;17.83;;;3.60;;
81841;SDS011;71284;50.918;7.092;2024-01-25T13:40:52;16.70;;;4.90;;
81841;SDS011;71284;50.918;7.092;2024-01-25T13:43:18;16.87;;;4.00;;
81841;SDS011;71284;50.918;7.092;2024-01-25T13:45:46;25.00;;;4.40;;
81841;SDS011;71284;50.918;7.092;2024-01-25T13:48:12;28.80;;;4.67;;
81841;SDS011;71284;50.918;7.092;2024-01-25T13:50:39;32.40;;;4.67;;
81841;SDS011;71284;50.918;7.092;2024-01-25T13:53:05;20.37;;;4.80;;
81841;SDS011;71284;50.918;7.092;2024-01-25T13:55:32;13.30;;;3.40;;
81841;SDS011;71284;50.918;7.092;2024-01-25T13:57:59;18.57;;;4.00;;
81841;SDS011;71284;50.918;7.092;2024-01-25T14:00:25;27.93;;;5.10;;
81841;SDS011;71284;50.918;7.092;2024-01-25T14:02:52;21.60;;;4.80;;
81841;SDS011;71284;50.918;7.092;2024-01-25T14:05:18;20.00;;;4.70;;
81841;SDS011;71284;50.918;7.092;2024-01-25T14:07:45;25.53;;;5.20;;
81841;SDS011;71284;50.918;7.092;2024-01-25T14:10:12;25.77;;;5.43;;
81841;SDS011;71284;50.918;7.092;2024-01-25T14:12:38;28.70;;;3.97;;
81841;SDS011;71284;50.918;7.092;2024-01-25T14:15:05;24.53;;;4.00;;
81841;SDS011;71284;50.918;7.092;2024-01-25T14:17:32;18.50;;;4.43;;
81841;SDS011;71284;50.918;7.092;2024-01-25T14:19:58;24.43;;;5.37;;
81841;SDS011;71284;50.918;7.092;2024-01-25T14:22:25;19.87;;;4.10;;
81841;SDS011;71284;50.918;7.092;2024-01-25T14:24:51;19.00;;;3.70;;
81841;SDS011;71284;50.918;7.092;2024-01-25T14:27:18;23.50;;;4.90;;
81841;SDS011;71284;50.918;7.092;2024-01-25T14:29:44;21.30;;;4.77;;
81841;SDS011;71284;50.918;7.092;2024-01-25T14:32:11;23.17;;;4.50;;